This is the latest recevied weather packets stored in our database for station/object K4FB. If no packets are shown the sender has not sent any weather packets the latest 10 day(s).
| Time | Temp. | Humidity | Pressure | Rain* | Wind** | Luminosity | Snow |
|---|---|---|---|---|---|---|---|
| 1777974328 | 16.67° C | 93% | 1015.4 hPa | 0 mm | - | - | - |
| 1777972808 | 16.67° C | 91% | 1015.4 hPa | 0 mm | - | - | - |
| 1777972204 | 17.22° C | 91% | 1015.4 hPa | 0 mm | - | - | - |
| 1777971636 | 17.22° C | 90% | 1015.3 hPa | 0 mm | - | - | - |
| 1777971012 | 17.22° C | 90% | 1015.3 hPa | 0 mm | - | - | - |
| 1777969817 | 17.78° C | 89% | 1015.3 hPa | 0 mm | - | - | - |
| 1777968605 | 17.78° C | 89% | 1015.2 hPa | 0 mm | - | - | - |
| 1777968307 | 17.78° C | 89% | 1015.2 hPa | 0 mm | - | - | - |
| 1777968017 | 17.78° C | 89% | 1015.2 hPa | 0 mm | - | - | - |
| 1777967703 | 17.78° C | 89% | 1015.2 hPa | 0 mm | - | - | - |
| 1777967407 | 17.78° C | 89% | 1015.4 hPa | 0 mm | - | - | - |
| 1777967124 | 17.78° C | 89% | 1015.4 hPa | 0 mm | - | - | - |
| 1777966807 | 17.78° C | 89% | 1015.4 hPa | 0 mm | - | - | - |
| 1777962622 | 19.44° C | 84% | 1015.9 hPa | 0 mm | - | - | - |
| 1777961403 | 19.44° C | 84% | 1016.1 hPa | 0 mm | - | - | - |
| 1777959308 | 20° C | 83% | 1016.4 hPa | 0 mm | - | - | - |
| 1777953003 | 20° C | 80% | 1017 hPa | 0 mm | - | - | - |
| 1777949119 | 20.56° C | 76% | 1017 hPa | 0 mm | - | - | - |
| 1777947009 | 21.11° C | 73% | 1016.8 hPa | 0 mm | - | - | - |
| 1777941604 | 22.78° C | 68% | 1016.2 hPa | 0 mm | - | - | - |
| 1777941303 | 22.78° C | 68% | 1016.3 hPa | 0 mm | - | - | - |
| 1777940114 | 23.33° C | 68% | 1015.9 hPa | 0 mm | - | - | - |
| 1777939503 | 23.33° C | 66% | 1015.5 hPa | 0 mm | - | - | - |
| 1777939234 | 23.89° C | 66% | 1015.5 hPa | 0 mm | - | - | - |
| 1777938603 | 23.89° C | 65% | 1015.6 hPa | 0 mm | - | - | - |
* Rain latest hour (hover to see other rain measurements)
** Current wind speed in m/s (hover to see current wind gust speed)